Time;durP1;ratioP1;P1;durP2;ratioP2;P2;SDS_P1;SDS_P2;PMS_P1;PMS_P2;Temp;Humidity;BMP_temperature;BMP_pressure;BME280_temperature;BME280_humidity;BME280_pressure;Samples;Min_cycle;Max_cycle;Signal;HPM_P1;HPM_P2
2022/07/01 09:43:03;;;;;;;6.72;1.60;;;;;;;22.34;55.22;101752.47;5099159;28;20384;-70
2022/07/01 09:45:30;;;;;;;3.83;1.30;;;;;;;22.11;55.05;101759.16;5048389;28;20061;-70
2022/07/01 09:47:56;;;;;;;3.53;1.52;;;;;;;21.96;55.23;101756.69;5049152;28;20100;-71
2022/07/01 09:50:23;;;;;;;1.80;1.10;;;;;;;21.87;54.77;101748.81;5049342;28;20547;-70
2022/07/01 09:52:49;;;;;;;2.78;1.20;;;;;;;21.80;53.87;101749.31;5048845;28;20061;-72
2022/07/01 09:55:16;;;;;;;2.92;1.25;;;;;;;21.80;54.26;101763.59;5048760;28;20060;-70
2022/07/01 09:57:42;;;;;;;2.90;1.10;;;;;;;21.79;53.66;101753.97;5049197;28;20164;-71
2022/07/01 10:00:09;;;;;;;3.42;1.10;;;;;;;21.77;52.94;101751.03;5049238;28;20061;-71
2022/07/01 10:02:36;;;;;;;1.95;0.90;;;;;;;21.80;53.23;101758.16;5049120;28;20058;-71
2022/07/01 10:05:17;;;;;;;3.17;1.10;;;;;;;21.82;53.05;101757.69;5047919;28;20165;-71
2022/07/01 10:08:15;;;;;;;1.90;1.15;;;;;;;21.85;53.54;101764.81;5049154;28;20143;-68
2022/07/01 10:10:51;;;;;;;1.30;1.17;;;;;;;21.87;52.62;101770.50;5048704;28;20077;-71
2022/07/01 10:13:23;;;;;;;0.90;0.90;;;;;;;21.87;52.61;101771.22;5040894;28;20380;-69
2022/07/01 10:15:51;;;;;;;2.50;0.90;;;;;;;21.91;52.92;101771.72;5045137;28;20064;-69
2022/07/01 10:18:22;;;;;;;1.88;0.80;;;;;;;21.93;52.85;101782.06;5046324;28;20054;-71
2022/07/01 10:20:49;;;;;;;1.00;0.90;;;;;;;21.94;52.02;101778.13;5045519;28;20168;-69
2022/07/01 10:23:19;;;;;;;2.38;1.40;;;;;;;21.99;52.46;101798.34;5048170;28;20081;-68
2022/07/01 10:25:50;;;;;;;4.05;1.10;;;;;;;21.97;50.95;101804.25;5048422;28;20053;-68
2022/07/01 10:28:27;;;;;;;3.05;0.90;;;;;;;21.96;50.26;101805.50;5048119;28;20058;-68
2022/07/01 10:31:05;;;;;;;6.25;1.65;;;;;;;21.96;50.26;101805.50;5046392;28;20145;-68
2022/07/01 10:41:23;;;;;;;3.15;1.27;;;;;;;25.41;42.87;101811.69;5087265;28;20886;-48
2022/07/01 10:43:50;;;;;;;3.33;1.30;;;;;;;25.80;42.59;101805.66;5086314;27;20057;-45
2022/07/01 10:46:45;;;;;;;5.38;1.88;;;;;;;25.76;41.09;101827.03;5048972;28;20060;-51
2022/07/01 10:49:41;;;;;;;6.32;1.45;;;;;;;25.09;39.99;101826.00;5048828;28;20053;-50
2022/07/01 10:52:18;;;;;;;2.00;1.48;;;;;;;25.21;44.68;101830.03;5049056;28;20046;-47
2022/07/01 10:54:53;;;;;;;3.70;1.25;;;;;;;25.15;45.84;101823.22;5050323;28;20500;-46
2022/07/01 10:57:19;;;;;;;3.05;1.20;;;;;;;25.47;46.68;101834.91;5050204;28;20097;-47
2022/07/01 11:00:15;;;;;;;2.35;1.20;;;;;;;25.97;39.85;101833.41;5047883;28;20537;-48
2022/07/01 11:02:42;;;;;;;3.50;1.17;;;;;;;25.93;40.37;101816.59;5050099;28;20092;-50
2022/07/01 11:05:10;;;;;;;4.68;1.20;;;;;;;24.98;40.62;101815.25;5050264;28;20104;-48
2022/07/01 11:07:42;;;;;;;2.85;1.02;;;;;;;25.07;41.81;101820.34;5048837;28;20505;-50
2022/07/01 11:10:10;;;;;;;1.63;1.10;;;;;;;24.81;40.30;101814.69;5049779;28;20065;-51
2022/07/01 11:12:38;;;;;;;2.17;1.23;;;;;;;25.27;41.60;101808.16;5048422;28;20056;-47
2022/07/01 11:15:05;;;;;;;2.28;1.27;;;;;;;25.65;37.36;101816.31;5049388;28;20512;-48
2022/07/01 11:17:33;;;;;;;3.00;1.13;;;;;;;25.17;41.44;101809.81;5050619;28;20500;-46
2022/07/01 11:20:03;;;;;;;2.38;0.98;;;;;;;25.35;41.34;101813.75;5047788;28;20049;-48
2022/07/01 11:22:32;;;;;;;3.03;1.00;;;;;;;25.51;45.24;101810.81;5050488;28;20049;-46
2022/07/01 11:25:05;;;;;;;2.63;1.40;;;;;;;25.15;42.18;101825.94;5050770;28;20072;-48
2022/07/01 11:27:32;;;;;;;2.60;1.15;;;;;;;25.16;44.01;101819.25;5050812;28;20109;-47
2022/07/01 11:30:04;;;;;;;3.03;1.20;;;;;;;24.86;39.93;101817.34;5050630;28;20057;-47
2022/07/01 11:32:34;;;;;;;2.28;1.20;;;;;;;25.03;41.74;101813.72;5045601;28;20050;-51
2022/07/01 11:35:03;;;;;;;0.90;0.90;;;;;;;25.04;38.89;101815.91;5049971;28;20486;-49
2022/07/01 11:40:17;;;;;;;3.63;1.00;;;;;;;24.80;46.00;101822.13;5048250;28;20069;-48
2022/07/01 11:42:44;;;;;;;5.65;1.30;;;;;;;24.77;42.40;101817.72;5048874;28;20057;-47
2022/07/01 11:45:26;;;;;;;3.15;1.30;;;;;;;24.82;43.82;101811.44;5048019;28;20056;-51
2022/07/01 11:47:53;;;;;;;2.85;0.98;;;;;;;24.26;45.82;101812.09;5048402;28;20121;-49
2022/07/01 11:50:20;;;;;;;4.38;1.00;;;;;;;24.85;43.42;101813.16;5048811;28;20054;-49
2022/07/01 11:52:47;;;;;;;3.10;1.02;;;;;;;24.70;39.31;101812.13;5036424;28;20498;-47
2022/07/01 11:55:18;;;;;;;1.80;1.02;;;;;;;24.69;38.42;101811.38;5036212;28;20465;-50
2022/07/01 11:58:02;;;;;;;1.63;0.90;;;;;;;24.29;41.43;101793.28;5035302;28;20054;-48
2022/07/01 12:00:33;;;;;;;3.60;1.08;;;;;;;24.33;43.05;101796.44;5036594;28;20065;-47
2022/07/01 12:03:00;;;;;;;1.48;1.10;;;;;;;24.29;39.19;101798.72;5036335;28;20496;-46
2022/07/01 12:05:26;;;;;;;2.75;1.13;;;;;;;24.18;42.37;101799.53;5036039;28;20137;-46
2022/07/01 12:07:53;;;;;;;2.08;1.02;;;;;;;24.46;41.09;101788.38;5036166;28;20058;-46
2022/07/01 12:10:27;;;;;;;4.18;1.00;;;;;;;24.52;39.53;101786.31;5036753;28;20056;-54
2022/07/01 12:12:54;;;;;;;2.33;1.27;;;;;;;24.78;39.49;101791.97;5036851;28;20054;-51
2022/07/01 12:15:20;;;;;;;5.50;1.10;;;;;;;24.69;41.09;101800.50;5036092;28;20108;-51
2022/07/01 12:17:47;;;;;;;1.35;0.98;;;;;;;24.51;39.44;101793.00;5036553;28;20050;-53
2022/07/01 12:20:13;;;;;;;2.53;1.10;;;;;;;24.34;38.48;101793.22;5036003;28;20073;-49
2022/07/01 12:22:40;;;;;;;5.57;1.05;;;;;;;24.27;39.71;101793.78;5035155;28;20052;-46
2022/07/01 12:25:09;;;;;;;3.38;1.30;;;;;;;24.18;40.97;101794.81;5036278;28;20084;-48
2022/07/01 12:27:38;;;;;;;2.30;1.17;;;;;;;24.54;40.30;101786.56;5036399;28;20065;-47
2022/07/01 12:30:07;;;;;;;3.05;1.00;;;;;;;24.68;41.67;101792.84;5035719;28;20050;-49
2022/07/01 12:32:39;;;;;;;3.25;1.08;;;;;;;24.86;41.67;101783.94;5033326;28;20056;-49
2022/07/01 12:37:52;;;;;;;1.33;0.85;;;;;;;24.24;40.12;101792.78;5035424;28;20058;-46
2022/07/01 12:40:25;;;;;;;3.05;1.20;;;;;;;24.21;41.41;101796.53;5034984;28;20058;-47
2022/07/01 12:42:51;;;;;;;1.30;0.90;;;;;;;24.30;42.38;101800.19;5036098;28;20458;-48
2022/07/01 12:45:23;;;;;;;2.42;1.25;;;;;;;24.37;40.28;101805.81;5035752;28;20060;-46
2022/07/01 12:47:51;;;;;;;6.63;1.15;;;;;;;24.53;41.14;101799.41;5035973;28;20516;-48
2022/07/01 12:50:23;;;;;;;5.85;1.35;;;;;;;24.71;40.25;101800.72;5035372;28;20058;-48
2022/07/01 12:53:09;;;;;;;2.42;0.98;;;;;;;25.14;43.40;101816.28;5035953;28;20050;-48
2022/07/01 12:55:40;;;;;;;1.83;1.10;;;;;;;24.46;42.82;101807.41;5035677;28;20489;-46
2022/07/01 12:58:09;;;;;;;3.15;1.08;;;;;;;23.63;42.13;101817.78;5035879;28;20064;-47
2022/07/01 13:00:37;;;;;;;3.60;1.25;;;;;;;23.15;43.30;101821.75;5034955;28;20057;-47
2022/07/01 13:03:04;;;;;;;4.43;1.70;;;;;;;22.75;44.14;101825.84;5030449;28;20049;-47
2022/07/01 13:05:33;;;;;;;3.85;1.48;;;;;;;22.77;45.43;101831.50;5033880;28;20052;-50
2022/07/01 13:08:00;;;;;;;2.28;1.05;;;;;;;22.47;43.53;101825.91;5034191;28;20052;-47
2022/07/01 13:10:27;;;;;;;10.43;1.42;;;;;;;22.13;45.02;101838.78;5034151;28;20050;-47
2022/07/01 13:12:54;;;;;;;1.77;1.38;;;;;;;22.19;47.93;101844.19;5033906;28;20061;-52
2022/07/01 13:15:21;;;;;;;4.32;1.67;;;;;;;22.11;46.29;101849.38;5033836;28;20050;-51
2022/07/01 13:17:47;;;;;;;3.10;1.30;;;;;;;21.95;47.63;101850.84;5034271;28;20498;-47
2022/07/01 13:20:15;;;;;;;4.80;1.30;;;;;;;21.50;48.79;101854.72;5032073;28;20054;-46
2022/07/01 13:22:42;;;;;;;7.00;1.73;;;;;;;21.37;49.40;101854.41;5033908;28;20053;-50
2022/07/01 13:25:09;;;;;;;2.83;1.00;;;;;;;21.09;51.23;101854.28;5037187;28;20057;-47
2022/07/01 13:27:37;;;;;;;3.13;1.30;;;;;;;20.89;50.25;101855.16;5034200;28;20050;-47
2022/07/01 13:30:05;;;;;;;3.42;1.25;;;;;;;20.85;52.11;101863.50;5033583;28;20061;-48
2022/07/01 13:32:32;;;;;;;3.97;1.50;;;;;;;20.89;50.97;101861.31;5034774;28;20057;-48
2022/07/01 13:34:58;;;;;;;2.40;1.30;;;;;;;21.02;51.75;101863.63;5033042;28;20105;-47
2022/07/01 13:37:24;;;;;;;7.97;1.30;;;;;;;21.32;50.30;101855.13;5033192;28;20078;-47
2022/07/01 13:39:51;;;;;;;3.33;1.50;;;;;;;21.58;49.63;101863.84;5033255;28;20064;-46
2022/07/01 13:42:17;;;;;;;2.58;1.20;;;;;;;21.78;48.44;101857.47;5032116;28;20048;-46
2022/07/01 13:44:44;;;;;;;2.20;1.40;;;;;;;21.81;49.75;101856.47;5034354;28;20512;-47
2022/07/01 13:47:12;;;;;;;2.33;1.50;;;;;;;22.06;50.35;101869.09;5031526;28;20056;-53
2022/07/01 13:49:43;;;;;;;2.40;1.20;;;;;;;22.48;49.67;101868.06;5033091;28;20050;-47
2022/07/01 13:52:10;;;;;;;1.38;1.15;;;;;;;22.51;48.01;101866.34;5033733;28;20049;-52
2022/07/01 13:54:37;;;;;;;3.90;1.10;;;;;;;22.58;46.88;101882.13;5032861;28;20046;-49
2022/07/01 13:57:04;;;;;;;6.32;1.60;;;;;;;22.65;47.30;101875.47;5033552;28;20058;-50
2022/07/01 13:59:31;;;;;;;2.40;1.45;;;;;;;23.05;45.47;101883.03;5033952;28;20064;-48
2022/07/01 14:02:05;;;;;;;20.27;1.65;;;;;;;23.10;48.18;101886.97;5033867;28;20138;-51
2022/07/01 14:04:31;;;;;;;2.38;1.30;;;;;;;23.16;49.27;101890.41;5032648;28;20046;-47
2022/07/01 14:06:57;;;;;;;7.32;1.40;;;;;;;23.17;45.48;101894.59;5031654;28;20064;-50
2022/07/01 14:09:24;;;;;;;1.45;1.20;;;;;;;23.03;43.38;101884.75;5030986;28;20520;-48
2022/07/01 14:11:51;;;;;;;3.25;1.38;;;;;;;23.09;45.18;101896.34;5033769;28;20569;-51
2022/07/01 14:14:17;;;;;;;4.97;1.80;;;;;;;22.86;46.37;101892.94;5032230;28;20054;-49
2022/07/01 14:16:43;;;;;;;2.95;1.58;;;;;;;22.72;46.76;101891.25;5031043;28;20054;-50
2022/07/01 14:19:10;;;;;;;2.13;1.40;;;;;;;22.46;47.53;101889.53;5029909;28;20104;-52
2022/07/01 14:21:36;;;;;;;5.05;1.63;;;;;;;22.08;46.46;101904.56;5031446;28;20061;-47
2022/07/01 14:24:06;;;;;;;3.70;1.65;;;;;;;21.76;48.33;101906.00;5031494;28;20050;-48
2022/07/01 14:26:33;;;;;;;7.18;1.63;;;;;;;21.79;50.21;101911.16;5032652;28;20478;-49
2022/07/01 14:28:59;;;;;;;3.35;1.60;;;;;;;21.83;49.55;101908.22;5032703;28;20046;-48
2022/07/01 14:31:25;;;;;;;2.67;1.70;;;;;;;22.33;49.74;101918.41;5031853;28;20060;-47
2022/07/01 14:33:52;;;;;;;4.00;1.42;;;;;;;22.42;46.34;101912.72;5032504;28;20069;-50
2022/07/01 14:36:18;;;;;;;3.80;1.85;;;;;;;22.34;49.10;101917.91;5032093;28;20058;-48
2022/07/01 14:38:45;;;;;;;2.25;1.20;;;;;;;22.56;51.04;101917.16;5032263;28;20454;-53
2022/07/01 14:41:11;;;;;;;1.65;1.20;;;;;;;22.72;48.49;101924.53;5032805;28;20061;-49
2022/07/01 14:43:38;;;;;;;3.22;1.20;;;;;;;22.59;44.79;101908.03;5032846;28;20105;-50
2022/07/01 14:46:08;;;;;;;3.22;1.10;;;;;;;22.42;48.44;101921.59;5030502;28;20582;-50
2022/07/01 14:48:38;;;;;;;1.50;1.05;;;;;;;22.43;46.76;101919.63;5033278;28;20514;-52
2022/07/01 14:51:05;;;;;;;2.28;1.45;;;;;;;22.32;49.57;101923.09;5032994;28;20061;-50
2022/07/01 14:53:32;;;;;;;1.48;1.20;;;;;;;22.42;45.69;101915.44;5037220;28;20060;-47
2022/07/01 14:55:59;;;;;;;4.20;1.10;;;;;;;22.32;49.39;101930.50;5030679;28;20057;-47
2022/07/01 14:58:25;;;;;;;2.63;1.30;;;;;;;22.21;50.13;101925.78;5033004;28;20049;-52
2022/07/01 15:00:52;;;;;;;2.08;1.30;;;;;;;22.00;48.39;101925.25;5028074;28;20543;-46
2022/07/01 15:03:19;;;;;;;5.40;1.50;;;;;;;22.07;48.96;101932.19;5032729;28;20053;-51
2022/07/01 15:05:45;;;;;;;2.95;1.27;;;;;;;21.91;49.53;101928.19;5031193;28;20043;-46
2022/07/01 15:08:19;;;;;;;2.90;1.30;;;;;;;21.79;48.61;101922.00;5032741;28;20058;-50
2022/07/01 15:10:46;;;;;;;3.17;1.58;;;;;;;21.51;51.21;101932.78;5032807;28;20473;-50
2022/07/01 15:13:12;;;;;;;7.40;1.23;;;;;;;21.44;49.70;101925.13;5031021;28;20056;-46
2022/07/01 15:15:39;;;;;;;4.68;1.52;;;;;;;21.41;50.73;101930.75;5031657;28;20050;-49
2022/07/01 15:18:05;;;;;;;2.17;1.45;;;;;;;21.61;49.99;101931.31;5032015;28;20050;-50
2022/07/01 15:20:32;;;;;;;1.20;1.10;;;;;;;21.80;49.24;101936.31;5032507;28;20065;-48
2022/07/01 15:22:58;;;;;;;1.40;1.30;;;;;;;21.41;46.87;101931.50;5031868;28;20054;-50
2022/07/01 15:25:24;;;;;;;1.30;1.10;;;;;;;21.32;48.72;101929.00;5030194;28;20098;-50
2022/07/01 15:27:51;;;;;;;4.53;1.50;;;;;;;21.45;48.28;101929.31;5034645;28;20124;-49
2022/07/01 15:30:20;;;;;;;3.13;1.33;;;;;;;21.43;49.71;101934.47;5034567;28;20050;-50
2022/07/01 15:32:47;;;;;;;4.78;1.10;;;;;;;21.35;47.88;101927.28;5036430;28;20426;-48
2022/07/01 15:35:13;;;;;;;3.65;1.40;;;;;;;21.47;50.66;101931.53;5031860;28;20060;-49
2022/07/01 15:37:40;;;;;;;2.50;1.30;;;;;;;22.05;50.81;101937.34;5035998;28;20470;-49
2022/07/01 15:40:07;;;;;;;5.32;1.20;;;;;;;22.36;49.63;101937.16;5034035;28;20075;-49
2022/07/01 15:42:35;;;;;;;1.80;1.38;;;;;;;22.47;46.85;101934.41;5033912;28;20045;-48
2022/07/01 15:45:03;;;;;;;3.05;1.40;;;;;;;21.87;48.49;101925.72;5036166;28;20544;-48
2022/07/01 15:50:17;;;;;;;2.58;1.15;;;;;;;22.23;45.82;101934.19;5033980;28;20057;-49
2022/07/01 15:52:45;;;;;;;1.98;1.20;;;;;;;22.43;47.20;101939.34;5034185;28;20049;-46
2022/07/01 15:55:12;;;;;;;4.38;1.20;;;;;;;22.56;48.14;101942.31;5034728;28;20106;-49
2022/07/01 15:57:38;;;;;;;7.70;1.42;;;;;;;22.76;47.28;101943.28;5035843;28;20050;-51
2022/07/01 16:00:05;;;;;;;6.45;1.38;;;;;;;22.59;45.15;101932.44;5035841;28;20517;-48
2022/07/01 16:02:32;;;;;;;3.40;1.20;;;;;;;22.63;47.92;101944.53;5034951;28;20105;-47
2022/07/01 16:04:58;;;;;;;5.13;1.35;;;;;;;22.69;47.51;101951.94;5035795;28;20054;-47
2022/07/01 16:07:25;;;;;;;4.75;1.40;;;;;;;22.39;47.02;101952.44;5032865;28;20054;-46
2022/07/01 16:10:03;;;;;;;1.67;1.17;;;;;;;22.04;46.29;101950.16;5035104;28;20046;-49
2022/07/01 16:12:30;;;;;;;2.58;1.30;;;;;;;22.00;47.39;101952.34;5036204;28;20061;-48
2022/07/01 16:14:59;;;;;;;1.52;1.30;;;;;;;22.01;46.67;101940.31;5034445;28;20050;-51
2022/07/01 16:17:29;;;;;;;1.60;1.10;;;;;;;21.98;47.41;101938.56;5036505;28;20042;-52
2022/07/01 16:19:56;;;;;;;4.05;1.33;;;;;;;21.98;47.43;101946.72;5034340;28;20058;-47
2022/07/01 16:22:26;;;;;;;1.88;1.20;;;;;;;22.12;48.00;101947.72;5035858;28;20054;-49
2022/07/01 16:24:54;;;;;;;4.00;1.48;;;;;;;22.16;48.13;101951.69;5037967;28;20114;-51
2022/07/01 16:27:21;;;;;;;3.17;2.28;;;;;;;21.93;47.75;101950.16;5036180;28;20082;-50
2022/07/01 16:29:49;;;;;;;1.30;1.20;;;;;;;21.63;48.90;101944.38;5036238;28;20050;-51
2022/07/01 16:32:16;;;;;;;5.55;1.60;;;;;;;21.64;48.26;101941.19;5034479;28;20060;-50
2022/07/01 16:34:43;;;;;;;2.83;1.20;;;;;;;21.52;49.34;101950.50;5036239;28;20981;-50
2022/07/01 16:37:14;;;;;;;2.40;1.23;;;;;;;21.07;50.88;101954.19;5035443;28;20054;-49
2022/07/01 16:39:45;;;;;;;2.20;1.20;;;;;;;20.58;51.06;101956.06;5035689;28;20056;-49
2022/07/01 16:42:19;;;;;;;5.07;1.40;;;;;;;20.16;52.38;101960.09;5035896;28;20124;-49
2022/07/01 16:45:03;;;;;;;1.70;1.40;;;;;;;20.26;52.47;101966.09;5032330;28;20493;-47
2022/07/01 16:47:32;;;;;;;1.30;1.17;;;;;;;20.49;52.55;101964.34;5035917;28;20046;-52
2022/07/01 16:50:13;;;;;;;3.22;1.05;;;;;;;21.02;53.85;101961.06;5035721;28;20053;-49
2022/07/01 16:52:47;;;;;;;2.53;1.20;;;;;;;21.13;51.27;101963.84;5035385;28;20053;-48
2022/07/01 16:55:34;;;;;;;4.28;1.38;;;;;;;21.34;50.29;101963.72;5033191;28;20058;-47
2022/07/01 16:58:04;;;;;;;1.60;1.10;;;;;;;21.60;50.58;101961.59;5036069;28;20061;-48
2022/07/01 17:00:30;;;;;;;2.15;1.20;;;;;;;21.71;49.30;101963.63;5035073;28;20063;-53
2022/07/01 17:03:01;;;;;;;2.42;1.05;;;;;;;21.28;49.06;101964.44;5035783;28;20057;-48
2022/07/01 17:05:29;;;;;;;2.65;1.13;;;;;;;21.15;50.20;101968.78;5034929;28;20054;-48
2022/07/01 17:08:00;;;;;;;6.35;1.25;;;;;;;21.28;50.53;101966.38;5035218;28;20050;-47
2022/07/01 17:10:29;;;;;;;1.60;1.05;;;;;;;21.29;50.91;101974.03;5035587;28;20077;-48
2022/07/01 17:12:56;;;;;;;2.72;1.00;;;;;;;21.27;50.04;101975.75;5034902;28;20497;-47
2022/07/01 17:15:23;;;;;;;1.20;1.10;;;;;;;21.26;50.48;101971.56;5035018;28;20053;-48
2022/07/01 17:17:50;;;;;;;2.55;0.90;;;;;;;21.31;48.89;101973.56;5035147;28;20042;-49
2022/07/01 17:20:17;;;;;;;1.90;1.08;;;;;;;21.11;50.24;101966.28;5034458;28;20057;-49
2022/07/01 17:22:46;;;;;;;3.65;1.05;;;;;;;21.13;51.38;101979.34;5034438;28;20119;-50
2022/07/01 17:25:26;;;;;;;1.52;1.10;;;;;;;21.17;51.82;101974.44;5034570;28;20068;-51
2022/07/01 17:28:14;;;;;;;0.93;0.93;;;;;;;21.04;50.04;101977.56;5035346;28;20046;-50
2022/07/01 17:30:45;;;;;;;1.73;1.08;;;;;;;20.99;50.98;101980.97;5034383;28;20061;-49
2022/07/01 17:33:16;;;;;;;1.20;0.82;;;;;;;20.67;49.64;101991.06;5035540;28;20053;-50
2022/07/01 17:35:49;;;;;;;3.25;1.00;;;;;;;20.51;52.64;101983.56;5034504;28;20058;-49
2022/07/01 17:38:19;;;;;;;3.10;1.33;;;;;;;20.60;51.09;101986.09;5034178;28;20446;-44
2022/07/01 17:40:48;;;;;;;4.47;1.30;;;;;;;20.67;53.35;101993.03;5034535;28;20437;-47
2022/07/01 17:43:20;;;;;;;2.72;1.20;;;;;;;20.67;52.21;101982.97;5034778;28;20517;-45
2022/07/01 17:45:50;;;;;;;2.45;1.15;;;;;;;20.53;52.38;101986.53;5034942;28;20054;-46
2022/07/01 17:48:17;;;;;;;1.63;1.10;;;;;;;20.30;52.01;101994.41;5034805;28;20050;-46
2022/07/01 17:50:45;;;;;;;1.80;1.10;;;;;;;20.07;53.04;101987.28;5034347;28;20077;-51
2022/07/01 17:53:12;;;;;;;1.35;1.20;;;;;;;19.75;54.35;101993.81;5032241;28;20053;-46
2022/07/01 17:55:38;;;;;;;4.28;1.50;;;;;;;19.55;53.53;101997.25;5032690;28;20061;-46
2022/07/01 17:58:05;;;;;;;1.58;1.15;;;;;;;19.58;55.22;102002.47;5032898;28;20050;-50
2022/07/01 18:00:31;;;;;;;4.40;1.33;;;;;;;19.62;53.83;101994.88;5032429;28;20049;-51
2022/07/01 18:02:58;;;;;;;3.35;1.60;;;;;;;19.58;53.52;102002.47;5033836;28;20054;-48
2022/07/01 18:05:27;;;;;;;2.00;1.40;;;;;;;19.56;52.90;102002.19;5034740;28;20049;-47
2022/07/01 18:07:56;;;;;;;1.45;1.15;;;;;;;19.62;54.79;102004.94;5034785;28;20050;-48
2022/07/01 18:10:46;;;;;;;3.50;1.30;;;;;;;19.61;53.62;102000.75;5033604;28;20506;-47
2022/07/01 18:13:27;;;;;;;1.33;1.15;;;;;;;19.55;54.13;102000.69;5033866;28;20057;-46
2022/07/01 18:15:58;;;;;;;;;;;;;;;19.47;54.22;101999.56;5034601;28;20054;-46
2022/07/01 18:18:27;;;;;;;2.67;1.13;;;;;;;19.14;53.89;101999.84;5034777;28;19936;-46
2022/07/01 18:20:58;;;;;;;3.30;1.17;;;;;;;19.01;55.54;101999.41;5032573;28;20052;-45
2022/07/01 18:23:33;;;;;;;6.30;1.40;;;;;;;18.83;55.68;102002.28;5034950;28;20054;-50
2022/07/01 18:26:04;;;;;;;2.22;1.00;;;;;;;18.63;59.06;102001.00;5032195;28;20290;-46
2022/07/01 18:28:42;;;;;;;3.17;1.35;;;;;;;18.55;57.19;102004.50;5033430;28;20054;-47
2022/07/01 18:31:23;;;;;;;1.65;1.27;;;;;;;18.44;58.56;102007.75;5034418;28;20060;-46
2022/07/01 18:34:06;;;;;;;1.75;1.30;;;;;;;18.39;59.74;102005.72;5034266;28;20057;-45
2022/07/01 18:36:39;;;;;;;6.40;1.60;;;;;;;18.29;59.59;102009.69;5034434;28;20062;-53
2022/07/01 18:39:07;;;;;;;2.55;1.40;;;;;;;18.26;59.98;102007.94;5033988;28;20076;-52
2022/07/01 18:41:33;;;;;;;3.75;1.48;;;;;;;18.17;60.36;102011.44;5031394;28;20058;-50
2022/07/01 18:44:00;;;;;;;1.73;1.60;;;;;;;18.18;61.45;102014.88;5034127;28;20061;-46
2022/07/01 18:46:26;;;;;;;1.90;1.30;;;;;;;18.04;59.96;102010.94;5034018;28;20058;-46
2022/07/01 18:48:53;;;;;;;2.65;1.25;;;;;;;18.08;62.38;102018.84;5033822;28;20552;-45
2022/07/01 18:51:19;;;;;;;1.58;1.40;;;;;;;18.02;61.11;102009.91;5034271;28;20545;-45
2022/07/01 18:53:46;;;;;;;7.57;1.20;;;;;;;18.00;61.09;102015.75;5033271;28;20074;-45
2022/07/01 18:56:12;;;;;;;3.80;1.40;;;;;;;17.98;63.23;102010.84;5033215;28;20512;-46
2022/07/01 18:58:38;;;;;;;4.20;1.38;;;;;;;17.96;62.69;102007.13;5033072;28;20054;-49
2022/07/01 19:01:05;;;;;;;4.25;1.50;;;;;;;17.90;61.47;102008.97;5034296;28;20050;-45
2022/07/01 19:03:34;;;;;;;7.03;1.40;;;;;;;17.82;62.76;102023.97;5037515;28;20142;-48
2022/07/01 19:06:00;;;;;;;1.88;1.48;;;;;;;17.85;63.11;102015.72;5036820;28;20516;-46
2022/07/01 19:08:27;;;;;;;3.50;1.30;;;;;;;17.76;62.12;102018.47;5037290;28;20525;-44
2022/07/01 19:10:53;;;;;;;4.47;1.65;;;;;;;17.69;63.91;102020.75;5037008;28;20561;-46
2022/07/01 19:13:20;;;;;;;1.23;1.13;;;;;;;17.65;64.94;102029.00;5037117;28;20050;-46
2022/07/01 19:15:46;;;;;;;2.20;1.73;;;;;;;17.62;65.52;102030.63;5036927;28;20061;-47
2022/07/01 19:18:13;;;;;;;5.40;1.67;;;;;;;17.61;65.05;102028.38;5037333;28;20054;-45
2022/07/01 19:20:39;;;;;;;1.48;1.38;;;;;;;17.58;66.21;102032.03;5037152;28;20053;-48
2022/07/01 19:23:06;;;;;;;2.97;1.60;;;;;;;17.52;65.55;102033.84;5036033;28;20050;-47
2022/07/01 19:25:33;;;;;;;4.25;1.92;;;;;;;17.45;66.62;102040.28;5036989;28;20054;-45
2022/07/01 19:27:59;;;;;;;2.35;1.45;;;;;;;17.45;66.90;102042.25;5037254;28;20046;-44
2022/07/01 19:30:26;;;;;;;4.07;1.80;;;;;;;17.38;65.68;102046.00;5037112;28;20445;-46
2022/07/01 19:32:54;;;;;;;4.00;1.50;;;;;;;17.34;67.87;102042.72;5036848;28;20049;-45
2022/07/01 19:35:22;;;;;;;2.95;1.33;;;;;;;17.26;67.06;102042.31;5036949;28;20064;-44
2022/07/01 19:37:50;;;;;;;4.05;1.20;;;;;;;17.18;70.01;102046.53;5036730;28;20050;-44
2022/07/01 19:40:26;;;;;;;3.15;1.48;;;;;;;17.10;68.98;102050.00;5035533;28;20457;-45
2022/07/01 19:42:53;;;;;;;3.53;1.73;;;;;;;16.98;68.75;102057.78;5037116;28;20057;-45
2022/07/01 19:45:19;;;;;;;3.60;1.70;;;;;;;16.94;68.26;102059.91;5036480;28;20194;-45
2022/07/01 19:47:46;;;;;;;3.42;1.75;;;;;;;16.93;70.02;102068.41;5036690;28;20521;-45
2022/07/01 19:50:12;;;;;;;5.45;1.80;;;;;;;16.86;70.18;102064.09;5035991;28;20054;-45
2022/07/01 19:52:39;;;;;;;2.10;1.70;;;;;;;16.78;70.56;102072.94;5035675;28;20050;-45
2022/07/01 19:55:05;;;;;;;4.88;2.08;;;;;;;16.72;71.13;102075.47;5036679;28;20062;-45
2022/07/01 19:57:32;;;;;;;2.42;1.48;;;;;;;16.69;70.82;102075.63;5036255;28;20058;-46
2022/07/01 19:59:58;;;;;;;5.70;1.67;;;;;;;16.67;70.54;102081.44;5032934;28;20061;-46
2022/07/01 20:02:25;;;;;;;1.92;1.73;;;;;;;16.56;70.05;102089.94;5036076;28;20054;-46
2022/07/01 20:04:51;;;;;;;3.67;1.65;;;;;;;16.52;70.62;102091.28;5034507;28;20060;-50
2022/07/01 20:07:18;;;;;;;9.82;1.70;;;;;;;16.47;71.10;102092.63;5036500;28;20137;-47
2022/07/01 20:09:44;;;;;;;6.93;1.33;;;;;;;16.39;72.06;102106.81;5036576;28;20042;-50
2022/07/01 20:12:11;;;;;;;2.38;1.60;;;;;;;16.32;72.03;102102.47;5036063;28;20050;-49
2022/07/01 20:14:37;;;;;;;10.65;1.65;;;;;;;16.25;72.36;102103.50;5034957;28;20053;-52
2022/07/01 20:17:06;;;;;;;5.55;2.03;;;;;;;16.16;73.85;102111.53;5036598;28;20403;-46
2022/07/01 20:19:32;;;;;;;2.42;1.70;;;;;;;16.08;73.84;102113.00;5036016;28;20050;-47
2022/07/01 20:21:59;;;;;;;2.40;1.67;;;;;;;16.04;74.21;102117.78;5035839;28;20439;-50
2022/07/01 20:24:25;;;;;;;6.22;1.95;;;;;;;15.98;74.02;102117.63;5036150;28;20512;-46
2022/07/01 20:26:52;;;;;;;2.85;1.90;;;;;;;15.90;74.35;102127.16;5035873;28;20055;-46
2022/07/01 20:29:19;;;;;;;2.63;1.67;;;;;;;15.83;74.73;102130.09;5036340;28;20050;-48
2022/07/01 20:31:46;;;;;;;2.35;1.60;;;;;;;15.78;75.70;102130.69;5036349;28;20054;-44
2022/07/01 20:34:12;;;;;;;3.92;1.90;;;;;;;15.71;75.64;102130.94;5035470;28;20061;-47
2022/07/01 20:36:39;;;;;;;5.93;1.90;;;;;;;15.57;76.12;102136.88;5036158;28;20053;-45
2022/07/01 20:39:07;;;;;;;3.83;1.95;;;;;;;15.50;77.04;102131.72;5036249;28;20050;-48
2022/07/01 20:41:34;;;;;;;3.92;2.38;;;;;;;15.40;76.68;102133.59;5035403;28;20057;-44
2022/07/01 20:44:01;;;;;;;4.18;1.98;;;;;;;15.39;77.34;102134.03;5035762;28;20502;-45
2022/07/01 20:46:28;;;;;;;7.45;1.83;;;;;;;15.29;77.17;102133.22;5034340;28;20494;-46
2022/07/01 20:48:54;;;;;;;3.05;2.08;;;;;;;15.21;77.91;102137.34;5035479;28;20046;-48
2022/07/01 20:51:21;;;;;;;3.70;2.20;;;;;;;15.20;78.03;102136.59;5032967;28;20057;-45
2022/07/01 20:53:47;;;;;;;3.42;2.00;;;;;;;15.19;77.95;102142.44;5035014;28;20054;-44
2022/07/01 20:56:13;;;;;;;2.63;1.90;;;;;;;15.13;78.76;102138.81;5035762;28;20046;-45
2022/07/01 20:58:46;;;;;;;6.07;2.40;;;;;;;15.06;78.74;102142.50;5036014;28;20101;-44
2022/07/01 21:01:13;;;;;;;2.90;2.20;;;;;;;15.05;79.33;102141.00;5034823;28;20061;-50
2022/07/01 21:03:40;;;;;;;2.92;2.45;;;;;;;15.01;79.68;102143.78;5035377;28;20104;-51
2022/07/01 21:06:08;;;;;;;3.08;2.47;;;;;;;14.91;80.12;102139.53;5035362;28;20053;-46
2022/07/01 21:08:34;;;;;;;5.80;2.60;;;;;;;14.86;80.27;102139.34;5034919;28;20056;-47
2022/07/01 21:11:01;;;;;;;6.55;2.92;;;;;;;14.77;80.29;102140.03;5035588;28;20054;-47
2022/07/01 21:13:28;;;;;;;5.60;2.60;;;;;;;14.73;81.02;102135.97;5035259;28;20441;-46
2022/07/01 21:15:54;;;;;;;2.83;2.40;;;;;;;14.68;81.51;102145.31;5035526;28;20050;-45
2022/07/01 21:18:20;;;;;;;3.22;2.40;;;;;;;14.72;81.46;102137.91;5035654;28;20514;-47
2022/07/01 21:20:47;;;;;;;5.18;2.53;;;;;;;14.68;81.48;102139.97;5034883;28;20058;-46
2022/07/01 21:23:14;;;;;;;4.00;2.80;;;;;;;14.68;81.71;102143.38;5035193;28;20058;-45
2022/07/01 21:25:41;;;;;;;5.38;2.90;;;;;;;14.61;82.00;102150.91;5034675;28;20485;-49
2022/07/01 21:28:07;;;;;;;6.47;3.03;;;;;;;14.53;82.50;102155.75;5033972;28;20071;-50
2022/07/01 21:30:37;;;;;;;9.20;3.22;;;;;;;14.50;82.30;102161.22;5035419;28;20054;-47